createdAt,value
2022-12-06T00:00:53.169Z,80.20
2022-12-06T00:03:19.704Z,80.38
2022-12-06T00:05:46.708Z,80.33
2022-12-06T00:08:13.497Z,80.47
2022-12-06T00:10:40.090Z,80.36
2022-12-06T00:13:06.564Z,81.31
2022-12-06T00:15:36.084Z,81.45
2022-12-06T00:18:03.031Z,80.74
2022-12-06T00:20:29.604Z,80.92
2022-12-06T00:22:56.443Z,81.23
2022-12-06T00:25:22.908Z,80.60
2022-12-06T00:27:50.705Z,81.19
2022-12-06T00:30:17.572Z,80.96
2022-12-06T00:32:44.185Z,81.26
2022-12-06T00:35:10.972Z,81.37
2022-12-06T00:37:37.511Z,81.97
2022-12-06T00:40:04.247Z,81.44
2022-12-06T00:42:30.753Z,81.62
2022-12-06T00:44:57.269Z,81.41
2022-12-06T00:47:23.790Z,81.05
2022-12-06T00:49:50.283Z,81.30
2022-12-06T00:52:16.807Z,80.78
2022-12-06T00:54:43.387Z,81.54
2022-12-06T00:57:10.061Z,81.54
2022-12-06T00:59:36.565Z,81.88
2022-12-06T01:02:03.122Z,80.97
2022-12-06T01:04:29.598Z,80.72
2022-12-06T01:06:56.044Z,79.88
2022-12-06T01:09:22.528Z,79.87
2022-12-06T01:11:49.017Z,80.12
2022-12-06T01:14:15.441Z,80.47
2022-12-06T01:16:41.927Z,79.87
2022-12-06T01:19:08.463Z,79.78
2022-12-06T01:21:35.021Z,79.78
2022-12-06T01:24:01.461Z,79.38
2022-12-06T01:26:33.704Z,79.60
2022-12-06T01:29:01.292Z,80.01
2022-12-06T01:31:35.583Z,80.36
2022-12-06T01:34:04.974Z,81.04
2022-12-06T01:36:31.527Z,80.42
2022-12-06T01:38:59.008Z,80.33
2022-12-06T01:41:27.332Z,80.57
2022-12-06T01:43:54.745Z,81.48
2022-12-06T01:46:44.891Z,81.83
2022-12-06T01:49:17.408Z,81.60
2022-12-06T01:51:50.577Z,81.58
2022-12-06T01:54:20.642Z,81.57
2022-12-06T01:56:48.962Z,81.21
2022-12-06T01:59:16.078Z,81.35
2022-12-06T02:01:42.979Z,80.77
2022-12-06T02:04:09.804Z,79.99
2022-12-06T02:06:37.410Z,80.34
2022-12-06T02:09:07.652Z,80.17
2022-12-06T02:11:35.721Z,80.46
2022-12-06T02:14:09.812Z,80.99
2022-12-06T02:16:43.584Z,81.52
2022-12-06T02:19:28.489Z,81.38
2022-12-06T02:22:07.480Z,80.73
2022-12-06T02:24:57.404Z,80.72
2022-12-06T02:27:32.944Z,80.49
2022-12-06T02:29:59.666Z,79.91
2022-12-06T02:32:37.182Z,79.98
2022-12-06T02:35:28.610Z,78.93
2022-12-06T02:38:10.130Z,79.14
2022-12-06T02:40:45.910Z,78.89
2022-12-06T02:43:19.832Z,78.94
2022-12-06T02:45:53.151Z,78.82
2022-12-06T02:48:22.093Z,77.93
2022-12-06T02:50:55.053Z,77.79
2022-12-06T02:53:24.189Z,77.96
2022-12-06T02:55:51.803Z,77.87
2022-12-06T02:58:18.346Z,78.19
2022-12-06T03:01:02.739Z,78.33
2022-12-06T03:03:54.924Z,78.99
2022-12-06T03:06:39.282Z,78.50
2022-12-06T03:09:05.641Z,78.89
2022-12-06T03:11:51.273Z,78.70
2022-12-06T03:14:23.286Z,77.98
2022-12-06T03:17:30.036Z,78.20
2022-12-06T03:20:01.668Z,78.56
2022-12-06T03:22:42.343Z,78.64
2022-12-06T03:25:10.306Z,78.70
2022-12-06T03:27:39.517Z,78.96
2022-12-06T03:30:09.236Z,79.00
2022-12-06T03:32:40.332Z,79.31
2022-12-06T03:35:10.227Z,78.89
2022-12-06T03:37:40.493Z,79.14
2022-12-06T03:40:19.264Z,79.06
2022-12-06T03:42:47.005Z,79.27
2022-12-06T03:45:14.238Z,79.04
2022-12-06T03:47:53.499Z,79.13
2022-12-06T03:50:28.027Z,79.56
2022-12-06T03:52:54.505Z,80.02
2022-12-06T03:55:21.262Z,79.44
2022-12-06T03:57:47.713Z,79.52
2022-12-06T04:00:16.525Z,79.07
2022-12-06T04:02:42.972Z,79.30
2022-12-06T04:05:09.700Z,79.75
2022-12-06T04:07:36.693Z,79.73
2022-12-06T04:10:04.131Z,79.59
2022-12-06T04:12:51.092Z,79.40
2022-12-06T04:15:17.782Z,80.10
2022-12-06T04:18:02.889Z,80.07
2022-12-06T04:20:50.900Z,80.66
2022-12-06T04:23:21.131Z,80.55
2022-12-06T04:25:47.638Z,80.84
2022-12-06T04:28:32.681Z,80.15
2022-12-06T04:31:22.087Z,80.11
2022-12-06T04:34:08.490Z,80.24
2022-12-06T04:36:53.680Z,80.49
2022-12-06T04:39:20.953Z,80.32
2022-12-06T04:42:06.816Z,80.29
2022-12-06T04:44:33.336Z,80.37
2022-12-06T04:47:00.125Z,79.94
2022-12-06T04:49:26.861Z,79.87
2022-12-06T04:51:54.813Z,79.69
2022-12-06T04:54:21.750Z,79.70
2022-12-06T04:56:48.524Z,79.83
2022-12-06T04:59:14.996Z,79.60
2022-12-06T05:01:41.429Z,79.64
2022-12-06T05:04:08.376Z,79.76
2022-12-06T05:06:34.874Z,79.48
2022-12-06T05:09:01.517Z,79.63
2022-12-06T05:11:27.932Z,79.49
2022-12-06T05:13:54.342Z,79.68
2022-12-06T05:16:20.828Z,79.74
2022-12-06T05:18:47.289Z,79.93
2022-12-06T05:21:16.863Z,79.99
2022-12-06T05:23:43.705Z,79.71
2022-12-06T05:26:20.762Z,79.99
2022-12-06T05:28:47.565Z,79.64
2022-12-06T05:31:15.469Z,80.00
2022-12-06T05:33:42.230Z,79.86
2022-12-06T05:36:10.837Z,79.80
2022-12-06T05:38:37.239Z,80.25
2022-12-06T05:41:04.804Z,80.10
2022-12-06T05:43:32.049Z,79.64
2022-12-06T05:45:58.988Z,79.85
2022-12-06T05:48:25.890Z,79.70
2022-12-06T05:50:53.682Z,79.52
2022-12-06T05:53:22.535Z,79.06
2022-12-06T05:55:49.560Z,80.12
2022-12-06T05:58:16.863Z,80.04
2022-12-06T06:00:47.473Z,79.67
2022-12-06T06:03:15.126Z,79.80
2022-12-06T06:05:46.693Z,80.01
2022-12-06T06:08:13.353Z,79.81
2022-12-06T06:10:39.918Z,79.61
2022-12-06T06:13:06.372Z,80.00
2022-12-06T06:15:32.844Z,79.80
2022-12-06T06:17:59.270Z,79.46
2022-12-06T06:20:25.804Z,79.52
2022-12-06T06:22:52.211Z,79.67
2022-12-06T06:25:18.737Z,80.02
2022-12-06T06:27:45.192Z,79.66
2022-12-06T06:30:12.815Z,80.55
2022-12-06T06:32:39.387Z,79.84
2022-12-06T06:35:06.788Z,80.64
2022-12-06T06:37:33.562Z,79.79
2022-12-06T06:40:00.898Z,80.29
2022-12-06T06:42:27.636Z,80.42
2022-12-06T06:44:55.402Z,80.30
2022-12-06T06:47:22.801Z,80.26
2022-12-06T06:49:49.353Z,80.56
2022-12-06T06:52:15.959Z,79.78
2022-12-06T06:54:42.370Z,80.43
2022-12-06T06:57:12.860Z,79.71
2022-12-06T06:59:43.035Z,79.79
2022-12-06T07:02:13.125Z,79.57
2022-12-06T07:04:39.924Z,79.60
2022-12-06T07:07:06.452Z,79.86
2022-12-06T07:09:33.320Z,79.94
2022-12-06T07:11:59.739Z,79.76
2022-12-06T07:14:26.512Z,79.82
2022-12-06T07:16:53.017Z,79.67
2022-12-06T07:19:19.467Z,80.19
2022-12-06T07:21:45.892Z,80.16
2022-12-06T07:24:12.558Z,79.65
2022-12-06T07:26:38.996Z,80.08
2022-12-06T07:29:05.447Z,79.59
2022-12-06T07:31:32.293Z,79.90
2022-12-06T07:34:00.585Z,79.97
2022-12-06T07:36:30.439Z,80.16
2022-12-06T07:38:58.717Z,79.60
2022-12-06T07:41:45.723Z,79.56
2022-12-06T07:44:48.900Z,79.79
2022-12-06T07:47:15.420Z,79.53
2022-12-06T07:49:41.864Z,79.68
2022-12-06T07:52:08.495Z,79.68
2022-12-06T07:54:34.975Z,80.19
2022-12-06T07:57:01.429Z,79.95
2022-12-06T07:59:27.858Z,79.62
2022-12-06T08:01:54.819Z,79.30
2022-12-06T08:04:21.458Z,79.52
2022-12-06T08:06:47.996Z,80.30
2022-12-06T08:09:14.943Z,80.19
2022-12-06T08:11:41.372Z,80.40
2022-12-06T08:14:07.859Z,80.31
2022-12-06T08:16:34.390Z,79.79
2022-12-06T08:19:01.209Z,80.00
2022-12-06T08:21:27.731Z,80.14
2022-12-06T08:23:54.887Z,79.94
2022-12-06T08:26:21.753Z,79.94
2022-12-06T08:28:48.693Z,79.72
2022-12-06T08:31:21.693Z,80.20
2022-12-06T08:33:48.338Z,79.44
2022-12-06T08:36:18.094Z,79.76
2022-12-06T08:38:44.935Z,79.35
2022-12-06T08:41:31.097Z,79.50
2022-12-06T08:43:59.362Z,79.70
2022-12-06T08:46:26.840Z,79.51
2022-12-06T08:48:53.647Z,79.63
2022-12-06T08:51:20.207Z,79.47
2022-12-06T08:53:46.671Z,79.03
2022-12-06T08:56:13.115Z,79.43
2022-12-06T08:58:39.563Z,79.18
2022-12-06T09:01:14.788Z,78.74
2022-12-06T09:03:41.280Z,78.91
2022-12-06T09:06:08.707Z,78.88
2022-12-06T09:08:36.434Z,78.51
2022-12-06T09:11:03.752Z,78.63
2022-12-06T09:13:30.462Z,78.40
2022-12-06T09:15:56.968Z,77.97
2022-12-06T09:18:23.504Z,78.06
2022-12-06T09:20:50.043Z,78.08
2022-12-06T09:23:16.507Z,77.77
2022-12-06T09:25:43.615Z,77.95
2022-12-06T09:28:11.421Z,78.18
2022-12-06T09:30:37.920Z,77.46
2022-12-06T09:33:04.372Z,77.55
2022-12-06T09:35:30.944Z,77.60
2022-12-06T09:37:59.322Z,78.13
2022-12-06T09:40:39.875Z,77.08
2022-12-06T09:43:33.664Z,76.48
2022-12-06T09:46:23.573Z,76.40
2022-12-06T09:49:11.706Z,76.99
2022-12-06T09:52:08.931Z,76.29
2022-12-06T09:54:38.863Z,76.71
2022-12-06T09:57:21.906Z,76.53
2022-12-06T10:00:18.995Z,76.68
2022-12-06T10:03:07.383Z,76.01
2022-12-06T10:05:40.443Z,75.93
2022-12-06T10:08:24.989Z,76.42
2022-12-06T10:11:09.666Z,76.14
2022-12-06T10:14:13.711Z,75.93
2022-12-06T10:17:18.667Z,75.68
2022-12-06T10:20:13.687Z,75.70
2022-12-06T10:23:11.871Z,74.25
2022-12-06T10:25:55.238Z,74.00
2022-12-06T10:28:44.169Z,73.95
2022-12-06T10:31:24.327Z,74.20
2022-12-06T10:34:01.026Z,74.40
2022-12-06T10:36:58.460Z,74.73
2022-12-06T10:39:24.813Z,73.97
2022-12-06T10:42:11.872Z,74.60
2022-12-06T10:44:46.565Z,73.83
2022-12-06T10:47:27.940Z,73.12
2022-12-06T10:50:06.414Z,72.83
2022-12-06T10:52:43.235Z,72.78
2022-12-06T10:55:09.632Z,74.00
2022-12-06T10:57:58.407Z,73.49
2022-12-06T11:00:31.915Z,72.93
2022-12-06T11:03:21.566Z,72.73
2022-12-06T11:05:59.053Z,71.66
2022-12-06T11:08:37.945Z,71.90
2022-12-06T11:11:11.701Z,71.88
2022-12-06T11:13:42.887Z,70.46
2022-12-06T11:16:11.832Z,71.11
2022-12-06T11:18:39.100Z,70.88
2022-12-06T11:21:05.661Z,68.56
2022-12-06T11:23:37.275Z,68.35
2022-12-06T11:27:01.239Z,69.40
2022-12-06T11:29:27.680Z,69.88
2022-12-06T11:32:10.135Z,70.55
2022-12-06T11:34:41.937Z,68.82
2022-12-06T11:37:15.512Z,67.40
2022-12-06T11:39:42.146Z,67.35
2022-12-06T11:42:12.935Z,67.46
2022-12-06T11:45:06.067Z,65.41
2022-12-06T11:47:32.763Z,64.88
2022-12-06T11:50:04.238Z,67.13
2022-12-06T11:52:41.691Z,66.61
2022-12-06T11:55:18.359Z,66.96
2022-12-06T11:57:48.813Z,67.79
2022-12-06T12:00:20.450Z,67.16
2022-12-06T12:02:48.880Z,67.02
2022-12-06T12:05:30.953Z,67.36
2022-12-06T12:08:05.326Z,65.82
2022-12-06T12:10:40.608Z,66.39
2022-12-06T12:13:35.456Z,66.20
2022-12-06T12:16:10.599Z,65.09
2022-12-06T12:18:39.903Z,64.65
2022-12-06T12:21:07.154Z,64.85
2022-12-06T12:23:37.722Z,63.91
2022-12-06T12:26:13.690Z,63.67
2022-12-06T12:28:41.527Z,64.00
2022-12-06T12:31:20.942Z,64.13
2022-12-06T12:33:48.166Z,63.23
2022-12-06T12:36:26.767Z,62.38
2022-12-06T12:39:02.479Z,62.22
2022-12-06T12:41:41.396Z,63.88
2022-12-06T12:44:36.932Z,64.56
2022-12-06T12:47:17.738Z,64.37
2022-12-06T12:49:58.014Z,65.47
2022-12-06T12:52:29.254Z,66.52
2022-12-06T12:55:20.079Z,66.68
2022-12-06T12:57:55.265Z,65.69
2022-12-06T13:00:43.749Z,65.64
2022-12-06T13:03:42.780Z,65.84
2022-12-06T13:06:04.111Z,65.63
2022-12-06T13:08:34.627Z,66.36
2022-12-06T13:11:03.140Z,67.29
2022-12-06T13:13:40.218Z,68.01
2022-12-06T13:16:17.156Z,66.90
2022-12-06T13:18:56.390Z,67.55
2022-12-06T13:21:36.033Z,66.65
2022-12-06T13:24:12.592Z,66.88
2022-12-06T13:26:44.331Z,67.45
2022-12-06T13:29:24.853Z,67.39
2022-12-06T13:31:53.447Z,66.03
2022-12-06T13:34:33.366Z,66.26
2022-12-06T13:37:02.815Z,67.28
2022-12-06T13:39:37.996Z,67.12
2022-12-06T13:42:20.972Z,66.94
2022-12-06T13:44:50.158Z,66.97
2022-12-06T13:47:28.836Z,66.44
2022-12-06T13:49:58.051Z,65.36
2022-12-06T13:52:42.604Z,65.63
2022-12-06T13:55:32.264Z,65.16
2022-12-06T13:57:58.732Z,64.80
2022-12-06T14:00:28.440Z,65.57
2022-12-06T14:02:59.091Z,65.68
2022-12-06T14:06:15.326Z,66.63
2022-12-06T14:08:59.515Z,67.14
2022-12-06T14:11:33.991Z,67.04
2022-12-06T14:14:08.966Z,68.08
2022-12-06T14:16:46.270Z,68.74
2022-12-06T14:19:42.201Z,68.66
2022-12-06T14:22:20.173Z,69.07
2022-12-06T14:25:07.800Z,68.77
2022-12-06T14:27:42.457Z,68.74
2022-12-06T14:30:26.684Z,69.56
2022-12-06T14:32:56.303Z,69.40
2022-12-06T14:35:29.977Z,69.85
2022-12-06T14:38:02.128Z,70.19
2022-12-06T14:40:54.815Z,70.83
2022-12-06T14:43:23.494Z,70.39
2022-12-06T14:45:52.349Z,70.71
2022-12-06T14:48:19.759Z,71.11
2022-12-06T14:50:56.500Z,71.29
2022-12-06T14:53:37.333Z,71.46
2022-12-06T14:56:07.717Z,70.77
2022-12-06T14:58:39.613Z,71.94
2022-12-06T15:01:37.149Z,71.62
2022-12-06T15:04:09.190Z,71.69
2022-12-06T15:06:37.759Z,71.79
2022-12-06T15:09:14.648Z,72.24
2022-12-06T15:12:01.703Z,72.33
2022-12-06T15:14:45.302Z,72.42
2022-12-06T15:17:11.654Z,72.74
2022-12-06T15:19:44.045Z,72.95
2022-12-06T15:22:29.117Z,72.72
2022-12-06T15:25:00.012Z,72.72
2022-12-06T15:27:29.151Z,73.22
2022-12-06T15:29:55.598Z,73.34
2022-12-06T15:32:24.797Z,73.08
2022-12-06T15:34:51.234Z,73.47
2022-12-06T15:40:04.908Z,73.46
2022-12-06T15:42:31.443Z,73.33
2022-12-06T15:44:57.891Z,73.96
2022-12-06T15:47:24.318Z,73.83
2022-12-06T15:49:54.247Z,73.54
2022-12-06T15:52:24.668Z,73.99
2022-12-06T15:54:51.741Z,74.25
2022-12-06T15:57:18.224Z,74.11
2022-12-06T15:59:44.643Z,74.60
2022-12-06T16:02:16.297Z,74.20
2022-12-06T16:04:43.912Z,74.84
2022-12-06T16:07:10.878Z,73.86
2022-12-06T16:09:37.483Z,74.22
2022-12-06T16:12:04.220Z,74.02
2022-12-06T16:14:30.624Z,74.71
2022-12-06T16:16:57.043Z,74.50
2022-12-06T16:19:23.497Z,74.73
2022-12-06T16:21:55.370Z,74.74
2022-12-06T16:24:22.203Z,74.69
2022-12-06T16:26:48.888Z,74.91
2022-12-06T16:29:20.334Z,75.49
2022-12-06T16:31:47.244Z,75.16
2022-12-06T16:34:14.663Z,75.47
2022-12-06T16:36:53.276Z,75.76
2022-12-06T16:39:19.701Z,75.41
2022-12-06T16:41:46.130Z,75.35
2022-12-06T16:44:12.577Z,75.03
2022-12-06T16:46:39.426Z,75.45
2022-12-06T16:49:43.510Z,75.48
2022-12-06T16:51:52.720Z,75.57
2022-12-06T16:54:19.346Z,75.69
2022-12-06T16:56:46.222Z,75.94
2022-12-06T16:59:17.637Z,76.04
2022-12-06T17:01:53.093Z,76.33
2022-12-06T17:04:19.901Z,76.38
2022-12-06T17:06:47.007Z,76.28
2022-12-06T17:09:14.041Z,76.17
2022-12-06T17:11:59.783Z,76.13
2022-12-06T17:14:26.574Z,76.06
2022-12-06T17:16:53.872Z,75.91
2022-12-06T17:19:23.251Z,76.28
2022-12-06T17:21:52.386Z,76.28
2022-12-06T17:24:20.640Z,76.14
2022-12-06T17:26:47.508Z,75.68
2022-12-06T17:29:14.282Z,76.16
2022-12-06T17:31:40.985Z,75.67
2022-12-06T17:34:08.248Z,75.74
2022-12-06T17:36:35.620Z,76.00
2022-12-06T17:39:04.413Z,76.04
2022-12-06T17:41:52.030Z,76.33
2022-12-06T17:44:19.074Z,76.17
2022-12-06T17:46:45.688Z,76.46
2022-12-06T17:49:18.215Z,76.50
2022-12-06T17:51:45.263Z,76.43
2022-12-06T17:54:12.653Z,76.50
2022-12-06T17:56:44.317Z,76.64
2022-12-06T17:59:16.395Z,76.52
2022-12-06T18:02:13.534Z,76.52
2022-12-06T18:04:31.125Z,77.13
2022-12-06T18:06:58.269Z,76.30
2022-12-06T18:09:24.793Z,76.59
2022-12-06T18:11:51.242Z,76.61
2022-12-06T18:14:17.973Z,77.16
2022-12-06T18:16:45.943Z,77.32
2022-12-06T18:19:15.074Z,77.31
2022-12-06T18:21:41.699Z,77.88
2022-12-06T18:24:30.464Z,78.29
2022-12-06T18:26:57.854Z,77.93
2022-12-06T18:29:24.603Z,77.98
2022-12-06T18:31:51.968Z,77.72
2022-12-06T18:34:19.054Z,77.66
2022-12-06T18:36:46.111Z,78.28
2022-12-06T18:39:17.435Z,78.08
2022-12-06T18:41:44.642Z,78.23
2022-12-06T18:44:12.165Z,77.72
2022-12-06T18:46:39.345Z,78.13
2022-12-06T18:49:06.440Z,78.51
2022-12-06T18:51:35.342Z,77.75
2022-12-06T18:54:04.322Z,77.99
2022-12-06T18:56:32.127Z,78.23
2022-12-06T18:59:02.193Z,78.00
2022-12-06T19:01:31.307Z,78.00
2022-12-06T19:04:00.652Z,78.45
2022-12-06T19:06:30.886Z,77.92
2022-12-06T19:09:01.086Z,78.49
2022-12-06T19:11:27.647Z,78.35
2022-12-06T19:13:55.753Z,78.39
2022-12-06T19:16:29.942Z,78.25
2022-12-06T19:18:58.524Z,78.96
2022-12-06T19:21:25.646Z,78.96
2022-12-06T19:23:54.115Z,78.89
2022-12-06T19:26:21.470Z,79.01
2022-12-06T19:28:48.249Z,78.60
2022-12-06T19:31:14.852Z,78.63
2022-12-06T19:33:43.960Z,78.61
2022-12-06T19:36:16.041Z,78.78
2022-12-06T19:38:43.156Z,78.80
2022-12-06T19:41:13.405Z,78.43
2022-12-06T19:43:59.009Z,78.35
2022-12-06T19:46:27.940Z,78.92
2022-12-06T19:48:59.416Z,79.64
2022-12-06T19:51:28.760Z,79.52
2022-12-06T19:53:57.854Z,79.39
2022-12-06T19:56:25.369Z,79.30
2022-12-06T19:58:52.056Z,79.47
2022-12-06T20:01:29.789Z,79.61
2022-12-06T20:03:56.563Z,79.77
2022-12-06T20:06:26.668Z,79.02
2022-12-06T20:08:55.930Z,79.76
2022-12-06T20:11:42.488Z,79.70
2022-12-06T20:14:12.168Z,80.15
2022-12-06T20:16:38.867Z,80.08
2022-12-06T20:19:07.050Z,79.71
2022-12-06T20:21:34.365Z,80.55
2022-12-06T20:24:01.356Z,80.59
2022-12-06T20:26:29.717Z,80.82
2022-12-06T20:28:56.146Z,80.94
2022-12-06T20:31:27.847Z,80.29
2022-12-06T20:33:59.525Z,80.27
2022-12-06T20:36:27.058Z,79.74
2022-12-06T20:38:54.629Z,80.29
2022-12-06T20:41:23.394Z,79.98
2022-12-06T20:43:51.091Z,80.25
2022-12-06T20:46:20.428Z,80.16
2022-12-06T20:48:46.908Z,79.44
2022-12-06T20:51:16.023Z,80.13
2022-12-06T20:53:43.004Z,80.29
2022-12-06T20:56:12.766Z,80.38
2022-12-06T20:58:39.229Z,79.24
2022-12-06T21:01:06.120Z,80.07
2022-12-06T21:03:32.926Z,79.94
2022-12-06T21:06:04.376Z,79.83
2022-12-06T21:08:31.479Z,79.59
2022-12-06T21:11:24.216Z,79.77
2022-12-06T21:13:45.080Z,79.57
2022-12-06T21:16:15.595Z,79.86
2022-12-06T21:18:42.875Z,80.07
2022-12-06T21:21:10.407Z,80.39
2022-12-06T21:23:37.479Z,80.07
2022-12-06T21:26:05.613Z,80.17
2022-12-06T21:28:32.713Z,80.54
2022-12-06T21:30:59.358Z,80.06
2022-12-06T21:33:26.055Z,79.92
2022-12-06T21:35:53.478Z,80.67
2022-12-06T21:38:21.301Z,80.59
2022-12-06T21:40:53.674Z,80.58
2022-12-06T21:43:22.137Z,80.30
2022-12-06T21:45:48.556Z,81.14
2022-12-06T21:48:14.978Z,80.70
2022-12-06T21:50:41.389Z,81.20
2022-12-06T21:53:07.810Z,80.28
2022-12-06T21:55:34.586Z,80.50
2022-12-06T21:58:01.004Z,79.83
2022-12-06T22:00:27.431Z,79.76
2022-12-06T22:02:54.213Z,79.91
2022-12-06T22:05:20.924Z,79.85
2022-12-06T22:07:47.444Z,79.57
2022-12-06T22:10:13.908Z,79.64
2022-12-06T22:12:40.391Z,79.83
2022-12-06T22:15:07.259Z,80.06
2022-12-06T22:17:33.675Z,79.76
2022-12-06T22:20:00.515Z,79.84
2022-12-06T22:22:27.257Z,79.67
2022-12-06T22:24:53.941Z,80.47
2022-12-06T22:27:20.353Z,80.21
2022-12-06T22:29:47.531Z,80.42
2022-12-06T22:32:14.068Z,80.25
2022-12-06T22:34:40.498Z,79.83
2022-12-06T22:37:06.959Z,79.79
2022-12-06T22:39:33.466Z,79.90
2022-12-06T22:41:59.884Z,79.49
2022-12-06T22:44:26.323Z,79.83
2022-12-06T22:46:52.865Z,79.92
2022-12-06T22:49:19.328Z,79.13
2022-12-06T22:51:45.905Z,79.43
2022-12-06T22:54:14.348Z,79.29
2022-12-06T22:56:47.271Z,79.85
2022-12-06T22:59:14.921Z,79.94
2022-12-06T23:01:41.731Z,79.69
2022-12-06T23:04:08.240Z,80.09
2022-12-06T23:06:35.676Z,79.72
2022-12-06T23:09:02.642Z,80.17
2022-12-06T23:11:31.665Z,79.69
2022-12-06T23:13:58.567Z,79.60
2022-12-06T23:16:28.950Z,79.56
2022-12-06T23:18:56.130Z,79.41
2022-12-06T23:21:34.041Z,79.46
2022-12-06T23:24:03.634Z,80.21
2022-12-06T23:26:34.024Z,79.79
2022-12-06T23:29:00.687Z,80.28
2022-12-06T23:31:29.368Z,80.27
2022-12-06T23:34:01.637Z,80.94
2022-12-06T23:36:30.562Z,80.94
2022-12-06T23:38:57.229Z,80.88
2022-12-06T23:41:28.906Z,80.97
2022-12-06T23:43:56.566Z,80.93
2022-12-06T23:46:26.154Z,81.18
2022-12-06T23:48:53.035Z,81.38
2022-12-06T23:51:21.468Z,81.63
2022-12-06T23:53:58.976Z,81.67
2022-12-06T23:56:28.933Z,81.42
2022-12-06T23:58:56.043Z,81.44
